sensor_id;sensor_type;location;lat;lon;timestamp;temperature;humidity
582;DHT22;277;50.074;8.436;2023-04-25T00:02:14;9.20;99.90
582;DHT22;277;50.074;8.436;2023-04-25T00:04:42;9.30;99.90
582;DHT22;277;50.074;8.436;2023-04-25T00:07:11;9.30;99.90
582;DHT22;277;50.074;8.436;2023-04-25T00:09:41;9.10;99.90
582;DHT22;277;50.074;8.436;2023-04-25T00:12:09;9.10;99.90
582;DHT22;277;50.074;8.436;2023-04-25T00:14:37;9.20;99.90
582;DHT22;277;50.074;8.436;2023-04-25T00:17:05;9.20;99.90
582;DHT22;277;50.074;8.436;2023-04-25T00:19:33;9.20;99.90
582;DHT22;277;50.074;8.436;2023-04-25T00:22:01;9.20;99.90
582;DHT22;277;50.074;8.436;2023-04-25T00:24:29;9.20;99.90
582;DHT22;277;50.074;8.436;2023-04-25T00:26:58;9.20;99.90
582;DHT22;277;50.074;8.436;2023-04-25T00:29:26;9.30;99.90
582;DHT22;277;50.074;8.436;2023-04-25T00:31:54;9.30;99.90
582;DHT22;277;50.074;8.436;2023-04-25T00:34:22;9.40;99.90
582;DHT22;277;50.074;8.436;2023-04-25T00:36:49;9.50;99.90
582;DHT22;277;50.074;8.436;2023-04-25T00:39:17;9.50;99.90
582;DHT22;277;50.074;8.436;2023-04-25T00:41:46;9.60;99.90
582;DHT22;277;50.074;8.436;2023-04-25T00:44:15;9.70;99.90
582;DHT22;277;50.074;8.436;2023-04-25T00:46:45;9.60;99.90
582;DHT22;277;50.074;8.436;2023-04-25T00:49:14;9.60;99.90
582;DHT22;277;50.074;8.436;2023-04-25T00:51:43;9.70;99.90
582;DHT22;277;50.074;8.436;2023-04-25T00:54:12;9.70;99.90
582;DHT22;277;50.074;8.436;2023-04-25T00:56:40;9.80;99.90
582;DHT22;277;50.074;8.436;2023-04-25T00:59:09;9.90;99.90
582;DHT22;277;50.074;8.436;2023-04-25T01:01:39;9.90;99.90
582;DHT22;277;50.074;8.436;2023-04-25T01:04:07;10.00;99.90
582;DHT22;277;50.074;8.436;2023-04-25T01:06:35;10.00;99.90
582;DHT22;277;50.074;8.436;2023-04-25T01:09:04;10.10;99.90
582;DHT22;277;50.074;8.436;2023-04-25T01:11:32;10.20;99.90
582;DHT22;277;50.074;8.436;2023-04-25T01:14:00;10.20;99.90
582;DHT22;277;50.074;8.436;2023-04-25T01:16:28;10.20;99.90
582;DHT22;277;50.074;8.436;2023-04-25T01:18:58;10.20;99.90
582;DHT22;277;50.074;8.436;2023-04-25T01:21:27;10.20;99.90
582;DHT22;277;50.074;8.436;2023-04-25T01:23:56;10.20;99.90
582;DHT22;277;50.074;8.436;2023-04-25T01:26:24;10.20;99.90
582;DHT22;277;50.074;8.436;2023-04-25T01:28:53;10.20;99.90
582;DHT22;277;50.074;8.436;2023-04-25T01:31:21;10.20;99.90
582;DHT22;277;50.074;8.436;2023-04-25T01:33:49;10.30;99.90
582;DHT22;277;50.074;8.436;2023-04-25T01:36:18;10.20;99.90
582;DHT22;277;50.074;8.436;2023-04-25T01:38:47;10.20;99.90
582;DHT22;277;50.074;8.436;2023-04-25T01:41:15;10.10;99.90
582;DHT22;277;50.074;8.436;2023-04-25T01:43:44;10.10;99.90
582;DHT22;277;50.074;8.436;2023-04-25T01:46:12;10.10;99.90
582;DHT22;277;50.074;8.436;2023-04-25T01:48:40;10.10;99.90
582;DHT22;277;50.074;8.436;2023-04-25T01:51:08;10.20;99.90
582;DHT22;277;50.074;8.436;2023-04-25T01:53:38;10.20;99.90
582;DHT22;277;50.074;8.436;2023-04-25T01:56:07;10.20;99.90
582;DHT22;277;50.074;8.436;2023-04-25T01:58:35;10.20;99.90
582;DHT22;277;50.074;8.436;2023-04-25T02:01:03;10.20;99.90
582;DHT22;277;50.074;8.436;2023-04-25T02:03:31;10.30;99.90
582;DHT22;277;50.074;8.436;2023-04-25T02:06:00;10.30;99.90
582;DHT22;277;50.074;8.436;2023-04-25T02:08:28;10.30;99.90
582;DHT22;277;50.074;8.436;2023-04-25T02:10:56;10.30;99.90
582;DHT22;277;50.074;8.436;2023-04-25T02:13:26;10.30;99.90
582;DHT22;277;50.074;8.436;2023-04-25T02:15:53;10.30;99.90
582;DHT22;277;50.074;8.436;2023-04-25T02:18:21;10.30;99.90
582;DHT22;277;50.074;8.436;2023-04-25T02:20:49;10.30;99.90
582;DHT22;277;50.074;8.436;2023-04-25T02:23:17;10.30;99.90
582;DHT22;277;50.074;8.436;2023-04-25T02:25:46;10.30;99.90
582;DHT22;277;50.074;8.436;2023-04-25T02:28:14;10.30;99.90
582;DHT22;277;50.074;8.436;2023-04-25T02:30:43;10.20;99.90
582;DHT22;277;50.074;8.436;2023-04-25T02:33:11;10.10;99.90
582;DHT22;277;50.074;8.436;2023-04-25T02:35:38;10.00;99.90
582;DHT22;277;50.074;8.436;2023-04-25T02:38:06;10.00;99.90
582;DHT22;277;50.074;8.436;2023-04-25T02:40:34;10.00;99.90
582;DHT22;277;50.074;8.436;2023-04-25T02:43:02;9.80;99.90
582;DHT22;277;50.074;8.436;2023-04-25T02:45:30;9.80;99.90
582;DHT22;277;50.074;8.436;2023-04-25T02:47:59;9.70;99.90
582;DHT22;277;50.074;8.436;2023-04-25T02:50:27;9.70;99.90
582;DHT22;277;50.074;8.436;2023-04-25T02:52:55;9.80;99.90
582;DHT22;277;50.074;8.436;2023-04-25T02:55:23;9.90;99.90
582;DHT22;277;50.074;8.436;2023-04-25T02:57:54;10.00;99.90
582;DHT22;277;50.074;8.436;2023-04-25T03:00:22;10.00;99.90
582;DHT22;277;50.074;8.436;2023-04-25T03:02:50;10.00;99.90
582;DHT22;277;50.074;8.436;2023-04-25T03:05:20;9.90;99.90
582;DHT22;277;50.074;8.436;2023-04-25T03:07:48;9.90;99.90
582;DHT22;277;50.074;8.436;2023-04-25T03:10:15;9.90;99.90
582;DHT22;277;50.074;8.436;2023-04-25T03:12:43;9.80;99.90
582;DHT22;277;50.074;8.436;2023-04-25T03:15:11;9.60;99.90
582;DHT22;277;50.074;8.436;2023-04-25T03:17:39;9.40;99.90
582;DHT22;277;50.074;8.436;2023-04-25T03:20:08;9.30;99.90
582;DHT22;277;50.074;8.436;2023-04-25T03:22:38;9.20;99.90
582;DHT22;277;50.074;8.436;2023-04-25T03:25:06;9.10;99.90
582;DHT22;277;50.074;8.436;2023-04-25T03:27:34;9.00;99.90
582;DHT22;277;50.074;8.436;2023-04-25T03:30:03;9.10;99.90
582;DHT22;277;50.074;8.436;2023-04-25T03:32:31;9.10;99.90
582;DHT22;277;50.074;8.436;2023-04-25T03:34:59;9.20;99.90
582;DHT22;277;50.074;8.436;2023-04-25T03:37:27;9.00;99.90
582;DHT22;277;50.074;8.436;2023-04-25T03:39:56;9.00;99.90
582;DHT22;277;50.074;8.436;2023-04-25T03:42:24;9.10;99.90
582;DHT22;277;50.074;8.436;2023-04-25T03:44:52;9.20;99.90
582;DHT22;277;50.074;8.436;2023-04-25T03:47:20;9.30;99.90
582;DHT22;277;50.074;8.436;2023-04-25T03:49:48;9.20;99.90
582;DHT22;277;50.074;8.436;2023-04-25T03:52:18;9.30;99.90
582;DHT22;277;50.074;8.436;2023-04-25T03:54:46;9.20;99.90
582;DHT22;277;50.074;8.436;2023-04-25T03:57:15;9.10;99.90
582;DHT22;277;50.074;8.436;2023-04-25T03:59:43;9.00;99.90
582;DHT22;277;50.074;8.436;2023-04-25T04:02:11;9.00;99.90
582;DHT22;277;50.074;8.436;2023-04-25T04:04:39;8.90;99.90
582;DHT22;277;50.074;8.436;2023-04-25T04:07:08;9.00;99.90
582;DHT22;277;50.074;8.436;2023-04-25T04:09:36;8.90;99.90
582;DHT22;277;50.074;8.436;2023-04-25T04:12:05;8.70;99.90
582;DHT22;277;50.074;8.436;2023-04-25T04:14:34;8.70;99.90
582;DHT22;277;50.074;8.436;2023-04-25T04:17:02;8.80;99.90
582;DHT22;277;50.074;8.436;2023-04-25T04:19:29;8.70;99.90
582;DHT22;277;50.074;8.436;2023-04-25T04:21:57;8.70;99.90
582;DHT22;277;50.074;8.436;2023-04-25T04:24:25;8.60;99.90
582;DHT22;277;50.074;8.436;2023-04-25T04:26:53;8.50;99.90
582;DHT22;277;50.074;8.436;2023-04-25T04:29:21;8.50;99.90
582;DHT22;277;50.074;8.436;2023-04-25T04:31:51;8.50;99.90
582;DHT22;277;50.074;8.436;2023-04-25T04:34:19;8.50;99.90
582;DHT22;277;50.074;8.436;2023-04-25T04:36:47;8.40;99.90
582;DHT22;277;50.074;8.436;2023-04-25T04:39:15;8.60;99.90
582;DHT22;277;50.074;8.436;2023-04-25T04:41:43;8.70;99.90
582;DHT22;277;50.074;8.436;2023-04-25T04:44:11;8.70;99.90
582;DHT22;277;50.074;8.436;2023-04-25T04:46:39;8.70;99.90
582;DHT22;277;50.074;8.436;2023-04-25T04:49:10;8.70;99.90
582;DHT22;277;50.074;8.436;2023-04-25T04:51:39;8.80;99.90
582;DHT22;277;50.074;8.436;2023-04-25T04:54:07;8.90;99.90
582;DHT22;277;50.074;8.436;2023-04-25T04:56:35;9.00;99.90
582;DHT22;277;50.074;8.436;2023-04-25T04:59:03;9.10;99.90
582;DHT22;277;50.074;8.436;2023-04-25T05:01:31;9.10;99.90
582;DHT22;277;50.074;8.436;2023-04-25T05:03:59;9.10;99.90
582;DHT22;277;50.074;8.436;2023-04-25T05:06:30;9.20;99.90
582;DHT22;277;50.074;8.436;2023-04-25T05:08:58;9.20;99.90
582;DHT22;277;50.074;8.436;2023-04-25T05:11:26;9.30;99.90
582;DHT22;277;50.074;8.436;2023-04-25T05:13:54;9.30;99.90
582;DHT22;277;50.074;8.436;2023-04-25T05:16:22;9.40;99.90
582;DHT22;277;50.074;8.436;2023-04-25T05:18:50;9.50;99.90
582;DHT22;277;50.074;8.436;2023-04-25T05:21:18;9.60;99.90
582;DHT22;277;50.074;8.436;2023-04-25T05:23:47;9.60;99.90
582;DHT22;277;50.074;8.436;2023-04-25T05:26:16;9.70;99.90
582;DHT22;277;50.074;8.436;2023-04-25T05:28:44;9.50;99.90
582;DHT22;277;50.074;8.436;2023-04-25T05:31:12;9.50;99.90
582;DHT22;277;50.074;8.436;2023-04-25T05:33:39;9.60;99.90
582;DHT22;277;50.074;8.436;2023-04-25T05:36:08;9.60;99.90
582;DHT22;277;50.074;8.436;2023-04-25T05:38:36;9.60;99.90
582;DHT22;277;50.074;8.436;2023-04-25T05:41:05;9.50;99.90
582;DHT22;277;50.074;8.436;2023-04-25T05:43:33;9.30;99.90
582;DHT22;277;50.074;8.436;2023-04-25T05:46:01;9.30;99.90
582;DHT22;277;50.074;8.436;2023-04-25T05:48:29;9.40;99.90
582;DHT22;277;50.074;8.436;2023-04-25T05:50:57;9.40;99.90
582;DHT22;277;50.074;8.436;2023-04-25T05:53:25;9.40;99.90
582;DHT22;277;50.074;8.436;2023-04-25T05:55:53;9.50;99.90
582;DHT22;277;50.074;8.436;2023-04-25T05:58:22;9.50;99.90
582;DHT22;277;50.074;8.436;2023-04-25T06:00:50;9.50;99.90
582;DHT22;277;50.074;8.436;2023-04-25T06:03:18;9.60;99.90
582;DHT22;277;50.074;8.436;2023-04-25T06:05:47;9.80;99.90
582;DHT22;277;50.074;8.436;2023-04-25T06:08:15;10.00;99.90
582;DHT22;277;50.074;8.436;2023-04-25T06:10:43;9.80;99.90
582;DHT22;277;50.074;8.436;2023-04-25T06:13:11;9.90;99.90
582;DHT22;277;50.074;8.436;2023-04-25T06:15:40;9.70;99.90
582;DHT22;277;50.074;8.436;2023-04-25T06:18:08;9.60;99.90
582;DHT22;277;50.074;8.436;2023-04-25T06:20:36;9.50;99.90
582;DHT22;277;50.074;8.436;2023-04-25T06:23:04;9.60;99.90
582;DHT22;277;50.074;8.436;2023-04-25T06:25:31;9.60;99.90
582;DHT22;277;50.074;8.436;2023-04-25T06:27:59;9.60;99.90
582;DHT22;277;50.074;8.436;2023-04-25T06:30:27;9.70;99.90
582;DHT22;277;50.074;8.436;2023-04-25T06:32:56;9.40;99.90
582;DHT22;277;50.074;8.436;2023-04-25T06:35:24;9.50;99.90
582;DHT22;277;50.074;8.436;2023-04-25T06:37:52;9.70;99.90
582;DHT22;277;50.074;8.436;2023-04-25T06:40:20;9.90;99.90
582;DHT22;277;50.074;8.436;2023-04-25T06:42:48;10.00;99.90
582;DHT22;277;50.074;8.436;2023-04-25T06:45:16;10.20;99.90
582;DHT22;277;50.074;8.436;2023-04-25T06:47:44;10.30;99.90
582;DHT22;277;50.074;8.436;2023-04-25T06:50:13;10.40;99.90
582;DHT22;277;50.074;8.436;2023-04-25T06:52:41;10.40;99.90
582;DHT22;277;50.074;8.436;2023-04-25T06:55:09;10.20;99.90
582;DHT22;277;50.074;8.436;2023-04-25T06:57:37;10.00;99.90
582;DHT22;277;50.074;8.436;2023-04-25T07:00:06;10.00;99.90
582;DHT22;277;50.074;8.436;2023-04-25T07:02:36;10.20;99.90
582;DHT22;277;50.074;8.436;2023-04-25T07:05:04;10.20;99.90
582;DHT22;277;50.074;8.436;2023-04-25T07:07:33;10.40;99.90
582;DHT22;277;50.074;8.436;2023-04-25T07:10:01;10.60;99.90
582;DHT22;277;50.074;8.436;2023-04-25T07:12:29;10.70;99.90
582;DHT22;277;50.074;8.436;2023-04-25T07:14:57;10.80;99.90
582;DHT22;277;50.074;8.436;2023-04-25T07:17:25;10.90;99.90
582;DHT22;277;50.074;8.436;2023-04-25T07:19:52;10.90;99.90
582;DHT22;277;50.074;8.436;2023-04-25T07:22:20;10.90;99.90
582;DHT22;277;50.074;8.436;2023-04-25T07:24:50;10.90;99.90
582;DHT22;277;50.074;8.436;2023-04-25T07:27:19;10.90;99.90
582;DHT22;277;50.074;8.436;2023-04-25T07:29:47;10.70;99.90
582;DHT22;277;50.074;8.436;2023-04-25T07:32:15;10.50;99.90
582;DHT22;277;50.074;8.436;2023-04-25T07:34:43;10.40;99.90
582;DHT22;277;50.074;8.436;2023-04-25T07:37:11;10.20;99.90
582;DHT22;277;50.074;8.436;2023-04-25T07:39:39;10.20;99.90
582;DHT22;277;50.074;8.436;2023-04-25T07:42:08;10.20;99.90
582;DHT22;277;50.074;8.436;2023-04-25T07:44:36;10.30;99.90
582;DHT22;277;50.074;8.436;2023-04-25T07:47:05;10.50;99.90
582;DHT22;277;50.074;8.436;2023-04-25T07:49:35;10.50;99.90
582;DHT22;277;50.074;8.436;2023-04-25T07:52:04;10.60;99.90
582;DHT22;277;50.074;8.436;2023-04-25T07:54:32;10.70;99.90
582;DHT22;277;50.074;8.436;2023-04-25T07:57:00;10.50;99.90
582;DHT22;277;50.074;8.436;2023-04-25T07:59:30;10.40;99.90
582;DHT22;277;50.074;8.436;2023-04-25T08:01:58;10.20;99.90
582;DHT22;277;50.074;8.436;2023-04-25T08:04:26;10.00;99.90
582;DHT22;277;50.074;8.436;2023-04-25T08:06:54;10.00;99.90
582;DHT22;277;50.074;8.436;2023-04-25T08:09:22;10.10;99.90
582;DHT22;277;50.074;8.436;2023-04-25T08:11:50;10.30;99.90
582;DHT22;277;50.074;8.436;2023-04-25T08:14:18;10.40;99.90
582;DHT22;277;50.074;8.436;2023-04-25T08:16:47;10.70;99.90
582;DHT22;277;50.074;8.436;2023-04-25T08:19:15;10.80;99.90
582;DHT22;277;50.074;8.436;2023-04-25T08:21:43;11.00;99.90
582;DHT22;277;50.074;8.436;2023-04-25T08:24:11;11.20;99.90
582;DHT22;277;50.074;8.436;2023-04-25T08:26:39;11.40;99.90
582;DHT22;277;50.074;8.436;2023-04-25T08:29:07;11.60;99.90
582;DHT22;277;50.074;8.436;2023-04-25T08:31:36;11.60;99.90
582;DHT22;277;50.074;8.436;2023-04-25T08:34:05;11.70;99.90
582;DHT22;277;50.074;8.436;2023-04-25T08:36:33;11.80;99.90
582;DHT22;277;50.074;8.436;2023-04-25T08:39:06;11.80;99.90
582;DHT22;277;50.074;8.436;2023-04-25T08:41:35;11.70;99.90
582;DHT22;277;50.074;8.436;2023-04-25T08:44:05;11.50;99.90
582;DHT22;277;50.074;8.436;2023-04-25T08:46:34;11.40;99.90
582;DHT22;277;50.074;8.436;2023-04-25T08:49:02;11.50;99.90
582;DHT22;277;50.074;8.436;2023-04-25T08:51:32;11.60;99.90
582;DHT22;277;50.074;8.436;2023-04-25T08:54:08;11.50;99.90
582;DHT22;277;50.074;8.436;2023-04-25T08:56:57;11.40;99.90
582;DHT22;277;50.074;8.436;2023-04-25T08:59:28;11.70;99.90
582;DHT22;277;50.074;8.436;2023-04-25T09:01:57;12.00;99.90
582;DHT22;277;50.074;8.436;2023-04-25T09:04:25;12.00;99.90
582;DHT22;277;50.074;8.436;2023-04-25T09:06:54;12.00;99.90
582;DHT22;277;50.074;8.436;2023-04-25T09:09:24;12.00;99.90
582;DHT22;277;50.074;8.436;2023-04-25T09:11:54;12.40;99.90
582;DHT22;277;50.074;8.436;2023-04-25T09:14:23;12.70;99.90
582;DHT22;277;50.074;8.436;2023-04-25T09:17:02;12.60;99.90
582;DHT22;277;50.074;8.436;2023-04-25T09:19:33;12.70;99.90
582;DHT22;277;50.074;8.436;2023-04-25T09:22:08;12.70;99.90
582;DHT22;277;50.074;8.436;2023-04-25T09:24:37;12.50;99.90
582;DHT22;277;50.074;8.436;2023-04-25T09:27:06;12.50;99.90
582;DHT22;277;50.074;8.436;2023-04-25T09:29:36;12.20;99.90
582;DHT22;277;50.074;8.436;2023-04-25T09:32:12;12.10;99.90
582;DHT22;277;50.074;8.436;2023-04-25T09:34:41;12.10;99.90
582;DHT22;277;50.074;8.436;2023-04-25T09:37:11;12.10;99.90
582;DHT22;277;50.074;8.436;2023-04-25T09:39:39;12.30;99.90
582;DHT22;277;50.074;8.436;2023-04-25T09:42:09;12.50;99.90
582;DHT22;277;50.074;8.436;2023-04-25T09:44:42;12.50;99.90
582;DHT22;277;50.074;8.436;2023-04-25T09:47:10;12.20;99.90
582;DHT22;277;50.074;8.436;2023-04-25T09:49:40;12.10;99.90
582;DHT22;277;50.074;8.436;2023-04-25T09:52:14;12.00;99.90
582;DHT22;277;50.074;8.436;2023-04-25T09:54:42;12.20;99.90
582;DHT22;277;50.074;8.436;2023-04-25T09:57:11;12.50;99.90
582;DHT22;277;50.074;8.436;2023-04-25T09:59:43;12.60;99.90
582;DHT22;277;50.074;8.436;2023-04-25T10:02:13;12.60;99.90
582;DHT22;277;50.074;8.436;2023-04-25T10:04:41;12.50;99.90
582;DHT22;277;50.074;8.436;2023-04-25T10:07:11;12.40;99.90
582;DHT22;277;50.074;8.436;2023-04-25T10:09:39;12.50;99.90
582;DHT22;277;50.074;8.436;2023-04-25T10:12:08;12.50;99.90
582;DHT22;277;50.074;8.436;2023-04-25T10:14:37;12.50;99.90
582;DHT22;277;50.074;8.436;2023-04-25T10:17:06;12.60;99.90
582;DHT22;277;50.074;8.436;2023-04-25T10:19:35;12.40;99.90
582;DHT22;277;50.074;8.436;2023-04-25T10:22:07;12.60;99.90
582;DHT22;277;50.074;8.436;2023-04-25T10:24:37;12.60;99.90
582;DHT22;277;50.074;8.436;2023-04-25T10:27:06;12.70;99.90
582;DHT22;277;50.074;8.436;2023-04-25T10:29:35;13.00;99.90
582;DHT22;277;50.074;8.436;2023-04-25T10:32:03;13.30;99.90
582;DHT22;277;50.074;8.436;2023-04-25T10:34:39;13.40;99.90
582;DHT22;277;50.074;8.436;2023-04-25T10:37:10;13.60;99.90
582;DHT22;277;50.074;8.436;2023-04-25T10:39:41;13.60;99.90
582;DHT22;277;50.074;8.436;2023-04-25T10:42:10;13.60;99.90
582;DHT22;277;50.074;8.436;2023-04-25T10:44:39;13.50;99.90
582;DHT22;277;50.074;8.436;2023-04-25T10:47:07;13.10;99.90
582;DHT22;277;50.074;8.436;2023-04-25T10:49:37;12.80;99.90
582;DHT22;277;50.074;8.436;2023-04-25T10:52:16;12.60;99.90
582;DHT22;277;50.074;8.436;2023-04-25T10:54:52;12.20;99.90
582;DHT22;277;50.074;8.436;2023-04-25T10:57:36;12.10;99.90
582;DHT22;277;50.074;8.436;2023-04-25T11:00:14;12.00;99.90
582;DHT22;277;50.074;8.436;2023-04-25T11:02:44;11.90;99.90
582;DHT22;277;50.074;8.436;2023-04-25T11:05:22;12.20;99.90
582;DHT22;277;50.074;8.436;2023-04-25T11:07:51;12.50;99.90
582;DHT22;277;50.074;8.436;2023-04-25T11:10:34;12.40;99.90
582;DHT22;277;50.074;8.436;2023-04-25T11:13:03;12.60;99.90
582;DHT22;277;50.074;8.436;2023-04-25T11:15:31;12.50;99.90
582;DHT22;277;50.074;8.436;2023-04-25T11:17:59;12.40;99.90
582;DHT22;277;50.074;8.436;2023-04-25T11:20:28;12.30;99.90
582;DHT22;277;50.074;8.436;2023-04-25T11:22:57;12.40;99.90
582;DHT22;277;50.074;8.436;2023-04-25T11:25:26;12.60;99.90
582;DHT22;277;50.074;8.436;2023-04-25T11:27:57;12.70;99.90
582;DHT22;277;50.074;8.436;2023-04-25T11:30:26;12.80;99.90
582;DHT22;277;50.074;8.436;2023-04-25T11:32:55;12.80;99.90
582;DHT22;277;50.074;8.436;2023-04-25T11:35:24;12.80;99.90
582;DHT22;277;50.074;8.436;2023-04-25T11:37:52;12.60;99.90
582;DHT22;277;50.074;8.436;2023-04-25T11:40:23;12.70;99.90
582;DHT22;277;50.074;8.436;2023-04-25T11:42:51;12.60;99.90
582;DHT22;277;50.074;8.436;2023-04-25T11:45:23;12.40;99.90
582;DHT22;277;50.074;8.436;2023-04-25T11:47:51;12.30;99.90
582;DHT22;277;50.074;8.436;2023-04-25T11:50:19;12.30;99.90
582;DHT22;277;50.074;8.436;2023-04-25T11:52:48;12.40;99.90
582;DHT22;277;50.074;8.436;2023-04-25T11:55:18;12.40;99.90
582;DHT22;277;50.074;8.436;2023-04-25T11:57:48;12.50;99.90
582;DHT22;277;50.074;8.436;2023-04-25T12:00:18;12.60;99.90
582;DHT22;277;50.074;8.436;2023-04-25T12:02:52;12.60;99.90
582;DHT22;277;50.074;8.436;2023-04-25T12:05:24;12.70;99.90
582;DHT22;277;50.074;8.436;2023-04-25T12:08:10;12.60;99.90
582;DHT22;277;50.074;8.436;2023-04-25T12:10:41;12.60;99.90
582;DHT22;277;50.074;8.436;2023-04-25T12:13:20;12.50;99.90
582;DHT22;277;50.074;8.436;2023-04-25T12:15:48;12.40;99.90
582;DHT22;277;50.074;8.436;2023-04-25T12:18:20;12.40;99.90
582;DHT22;277;50.074;8.436;2023-04-25T12:20:48;12.40;99.90
582;DHT22;277;50.074;8.436;2023-04-25T12:23:16;12.40;99.90
582;DHT22;277;50.074;8.436;2023-04-25T12:25:44;12.40;99.90
582;DHT22;277;50.074;8.436;2023-04-25T12:28:14;12.40;99.90
582;DHT22;277;50.074;8.436;2023-04-25T12:30:55;12.30;99.90
582;DHT22;277;50.074;8.436;2023-04-25T12:33:26;12.30;99.90
582;DHT22;277;50.074;8.436;2023-04-25T12:35:55;12.40;99.90
582;DHT22;277;50.074;8.436;2023-04-25T12:38:25;12.30;99.90
582;DHT22;277;50.074;8.436;2023-04-25T12:40:53;12.30;99.90
582;DHT22;277;50.074;8.436;2023-04-25T12:43:21;12.40;99.90
582;DHT22;277;50.074;8.436;2023-04-25T12:45:49;12.40;99.90
582;DHT22;277;50.074;8.436;2023-04-25T12:48:17;12.50;99.90
582;DHT22;277;50.074;8.436;2023-04-25T12:50:47;12.30;99.90
582;DHT22;277;50.074;8.436;2023-04-25T12:53:17;12.30;99.90
582;DHT22;277;50.074;8.436;2023-04-25T12:55:46;12.00;99.90
582;DHT22;277;50.074;8.436;2023-04-25T12:58:14;11.90;99.90
582;DHT22;277;50.074;8.436;2023-04-25T13:00:42;11.90;99.90
582;DHT22;277;50.074;8.436;2023-04-25T13:03:10;12.10;99.90
582;DHT22;277;50.074;8.436;2023-04-25T13:05:39;12.20;99.90
582;DHT22;277;50.074;8.436;2023-04-25T13:08:09;12.20;99.90
582;DHT22;277;50.074;8.436;2023-04-25T13:10:37;12.10;99.90
582;DHT22;277;50.074;8.436;2023-04-25T13:13:06;12.20;99.90
582;DHT22;277;50.074;8.436;2023-04-25T13:15:33;12.20;99.90
582;DHT22;277;50.074;8.436;2023-04-25T13:18:02;12.50;99.90
582;DHT22;277;50.074;8.436;2023-04-25T13:20:30;12.70;99.90
582;DHT22;277;50.074;8.436;2023-04-25T13:22:58;12.80;99.90
582;DHT22;277;50.074;8.436;2023-04-25T13:25:30;12.80;99.90
582;DHT22;277;50.074;8.436;2023-04-25T13:27:57;12.60;99.90
582;DHT22;277;50.074;8.436;2023-04-25T13:30:25;12.40;99.90
582;DHT22;277;50.074;8.436;2023-04-25T13:32:54;12.30;99.90
582;DHT22;277;50.074;8.436;2023-04-25T13:35:23;12.20;99.90
582;DHT22;277;50.074;8.436;2023-04-25T13:37:52;12.20;99.90
582;DHT22;277;50.074;8.436;2023-04-25T13:40:20;12.40;99.90
582;DHT22;277;50.074;8.436;2023-04-25T13:42:52;12.30;99.90
582;DHT22;277;50.074;8.436;2023-04-25T13:45:20;12.40;99.90
582;DHT22;277;50.074;8.436;2023-04-25T13:47:48;12.40;99.90
582;DHT22;277;50.074;8.436;2023-04-25T13:50:17;12.40;99.90
582;DHT22;277;50.074;8.436;2023-04-25T13:52:44;12.50;99.90
582;DHT22;277;50.074;8.436;2023-04-25T13:55:12;12.30;99.90
582;DHT22;277;50.074;8.436;2023-04-25T13:57:40;12.20;99.90
582;DHT22;277;50.074;8.436;2023-04-25T14:00:10;12.80;99.90
582;DHT22;277;50.074;8.436;2023-04-25T14:02:39;13.20;99.90
582;DHT22;277;50.074;8.436;2023-04-25T14:05:08;13.20;99.90
582;DHT22;277;50.074;8.436;2023-04-25T14:07:36;13.30;99.90
582;DHT22;277;50.074;8.436;2023-04-25T14:10:05;13.60;99.60
582;DHT22;277;50.074;8.436;2023-04-25T14:12:33;13.70;99.90
582;DHT22;277;50.074;8.436;2023-04-25T14:15:02;13.70;99.40
582;DHT22;277;50.074;8.436;2023-04-25T14:17:31;13.40;99.40
582;DHT22;277;50.074;8.436;2023-04-25T14:19:59;13.30;99.30
582;DHT22;277;50.074;8.436;2023-04-25T14:22:26;13.30;99.40
582;DHT22;277;50.074;8.436;2023-04-25T14:24:54;13.40;99.90
582;DHT22;277;50.074;8.436;2023-04-25T14:27:22;13.90;99.60
582;DHT22;277;50.074;8.436;2023-04-25T14:29:51;14.40;98.80
582;DHT22;277;50.074;8.436;2023-04-25T14:32:19;14.50;99.20
582;DHT22;277;50.074;8.436;2023-04-25T14:34:49;14.60;98.20
582;DHT22;277;50.074;8.436;2023-04-25T14:37:17;14.50;98.20
582;DHT22;277;50.074;8.436;2023-04-25T14:39:45;14.10;97.40
582;DHT22;277;50.074;8.436;2023-04-25T14:42:13;13.60;97.60
582;DHT22;277;50.074;8.436;2023-04-25T14:44:41;13.20;98.20
582;DHT22;277;50.074;8.436;2023-04-25T14:47:09;13.00;99.10
582;DHT22;277;50.074;8.436;2023-04-25T14:49:37;12.80;98.80
582;DHT22;277;50.074;8.436;2023-04-25T14:52:06;12.70;99.50
582;DHT22;277;50.074;8.436;2023-04-25T14:54:34;12.60;99.40
582;DHT22;277;50.074;8.436;2023-04-25T14:57:01;12.20;99.90
582;DHT22;277;50.074;8.436;2023-04-25T14:59:29;12.30;99.90
582;DHT22;277;50.074;8.436;2023-04-25T15:01:57;12.50;99.90
582;DHT22;277;50.074;8.436;2023-04-25T15:04:25;12.40;99.90
582;DHT22;277;50.074;8.436;2023-04-25T15:06:54;12.40;99.90
582;DHT22;277;50.074;8.436;2023-04-25T15:09:23;12.30;99.90
582;DHT22;277;50.074;8.436;2023-04-25T15:11:51;12.10;99.90
582;DHT22;277;50.074;8.436;2023-04-25T15:14:19;12.10;99.90
582;DHT22;277;50.074;8.436;2023-04-25T15:16:47;12.00;99.90
582;DHT22;277;50.074;8.436;2023-04-25T15:19:15;12.40;99.90
582;DHT22;277;50.074;8.436;2023-04-25T15:21:43;13.20;99.90
582;DHT22;277;50.074;8.436;2023-04-25T15:24:11;13.50;99.10
582;DHT22;277;50.074;8.436;2023-04-25T15:26:42;14.00;99.20
582;DHT22;277;50.074;8.436;2023-04-25T15:29:10;14.30;99.60
582;DHT22;277;50.074;8.436;2023-04-25T15:31:38;14.50;96.60
582;DHT22;277;50.074;8.436;2023-04-25T15:34:06;14.40;96.60
582;DHT22;277;50.074;8.436;2023-04-25T15:36:34;14.30;97.20
582;DHT22;277;50.074;8.436;2023-04-25T15:39:02;14.20;95.60
582;DHT22;277;50.074;8.436;2023-04-25T15:41:30;14.00;95.50
582;DHT22;277;50.074;8.436;2023-04-25T15:44:00;14.00;95.60
582;DHT22;277;50.074;8.436;2023-04-25T15:46:28;13.60;93.80
582;DHT22;277;50.074;8.436;2023-04-25T15:48:57;13.30;93.80
582;DHT22;277;50.074;8.436;2023-04-25T15:51:25;13.40;94.80
582;DHT22;277;50.074;8.436;2023-04-25T15:53:53;13.70;94.60
582;DHT22;277;50.074;8.436;2023-04-25T15:56:21;13.90;93.60
582;DHT22;277;50.074;8.436;2023-04-25T15:58:50;14.00;94.30
582;DHT22;277;50.074;8.436;2023-04-25T16:01:19;14.10;92.90
582;DHT22;277;50.074;8.436;2023-04-25T16:03:51;13.80;93.10
582;DHT22;277;50.074;8.436;2023-04-25T16:06:19;13.80;93.80
582;DHT22;277;50.074;8.436;2023-04-25T16:08:47;13.70;93.20
582;DHT22;277;50.074;8.436;2023-04-25T16:11:15;13.40;94.60
582;DHT22;277;50.074;8.436;2023-04-25T16:13:44;13.30;94.10
582;DHT22;277;50.074;8.436;2023-04-25T16:16:13;13.20;94.60
582;DHT22;277;50.074;8.436;2023-04-25T16:18:42;13.00;95.00
582;DHT22;277;50.074;8.436;2023-04-25T16:21:10;12.90;95.60
582;DHT22;277;50.074;8.436;2023-04-25T16:23:43;12.80;95.60
582;DHT22;277;50.074;8.436;2023-04-25T16:26:11;12.60;96.30
582;DHT22;277;50.074;8.436;2023-04-25T16:28:38;12.50;95.40
582;DHT22;277;50.074;8.436;2023-04-25T16:31:06;12.30;96.00
582;DHT22;277;50.074;8.436;2023-04-25T16:33:34;12.30;97.20
582;DHT22;277;50.074;8.436;2023-04-25T16:36:04;12.20;96.60
582;DHT22;277;50.074;8.436;2023-04-25T16:38:32;12.20;98.00
582;DHT22;277;50.074;8.436;2023-04-25T16:41:00;12.20;98.00
582;DHT22;277;50.074;8.436;2023-04-25T16:43:28;12.30;98.30
582;DHT22;277;50.074;8.436;2023-04-25T16:45:57;12.40;97.90
582;DHT22;277;50.074;8.436;2023-04-25T16:48:25;12.40;97.30
582;DHT22;277;50.074;8.436;2023-04-25T16:50:53;12.10;97.20